createdAt,value
2022-12-12T00:00:28.152Z,101223.41
2022-12-12T00:02:54.603Z,101221.72
2022-12-12T00:05:20.983Z,101226.91
2022-12-12T00:07:47.448Z,101232.16
2022-12-12T00:10:14.341Z,101233.03
2022-12-12T00:12:41.505Z,101228.66
2022-12-12T00:15:08.715Z,101232.03
2022-12-12T00:17:35.232Z,101230.44
2022-12-12T00:20:01.630Z,101229.72
2022-12-12T00:22:28.007Z,101231.31
2022-12-12T00:24:54.337Z,101236.00
2022-12-12T00:27:20.829Z,101231.25
2022-12-12T00:29:52.181Z,101235.91
2022-12-12T00:32:18.859Z,101237.72
2022-12-12T00:34:45.696Z,101239.31
2022-12-12T00:37:12.260Z,101239.38
2022-12-12T00:39:38.794Z,101236.72
2022-12-12T00:42:05.207Z,101240.06
2022-12-12T00:44:31.525Z,101239.31
2022-12-12T00:46:57.865Z,101234.81
2022-12-12T00:49:24.389Z,101232.06
2022-12-12T00:51:50.835Z,101230.38
2022-12-12T00:54:17.180Z,101227.69
2022-12-12T00:56:43.749Z,101235.63
2022-12-12T00:59:10.053Z,101232.94
2022-12-12T01:01:36.590Z,101234.69
2022-12-12T01:04:03.495Z,101234.75
2022-12-12T01:06:31.188Z,101235.78
2022-12-12T01:08:57.724Z,101236.75
2022-12-12T01:11:24.177Z,101242.09
2022-12-12T01:13:52.131Z,101243.13
2022-12-12T01:16:18.702Z,101243.03
2022-12-12T01:18:45.192Z,101243.84
2022-12-12T01:21:16.531Z,101242.88
2022-12-12T01:23:42.893Z,101250.94
2022-12-12T01:26:12.401Z,101246.50
2022-12-12T01:28:39.002Z,101261.59
2022-12-12T01:31:06.574Z,101252.06
2022-12-12T01:33:33.643Z,101260.03
2022-12-12T01:35:59.991Z,101264.56
2022-12-12T01:38:26.371Z,101263.69
2022-12-12T01:40:53.469Z,101268.06
2022-12-12T01:43:21.979Z,101272.56
2022-12-12T01:45:57.738Z,101275.22
2022-12-12T01:48:29.194Z,101273.53
2022-12-12T01:50:59.508Z,101281.53
2022-12-12T01:53:27.959Z,101274.50
2022-12-12T01:55:56.328Z,101277.16
2022-12-12T01:58:23.777Z,101280.66
2022-12-12T02:00:50.244Z,101278.00
2022-12-12T02:03:16.874Z,101274.50
2022-12-12T02:05:51.539Z,101282.56
2022-12-12T02:08:21.003Z,101290.47
2022-12-12T02:10:47.607Z,101275.56
2022-12-12T02:13:18.483Z,101279.19
2022-12-12T02:16:03.688Z,101281.91
2022-12-12T02:19:08.113Z,101282.75
2022-12-12T02:21:44.121Z,101281.91
2022-12-12T02:24:25.632Z,101274.03
2022-12-12T02:27:10.995Z,101277.66
2022-12-12T02:30:15.296Z,101282.19
2022-12-12T02:33:10.215Z,101280.53
2022-12-12T02:35:55.491Z,101286.84
2022-12-12T02:38:27.372Z,101286.78
2022-12-12T02:41:13.227Z,101280.88
2022-12-12T02:44:09.053Z,101280.38
2022-12-12T02:46:48.583Z,101278.75
2022-12-12T02:49:25.372Z,101280.63
2022-12-12T02:51:53.138Z,101288.81
2022-12-12T02:54:22.235Z,101285.38
2022-12-12T02:56:56.311Z,101286.41
2022-12-12T02:59:26.417Z,101280.44
2022-12-12T03:02:38.020Z,101283.31
2022-12-12T03:05:25.808Z,101286.38
2022-12-12T03:08:04.042Z,101287.47
2022-12-12T03:10:45.770Z,101291.38
2022-12-12T03:13:30.770Z,101299.53
2022-12-12T03:16:19.037Z,101293.47
2022-12-12T03:18:45.411Z,101291.97
2022-12-12T03:21:33.230Z,101296.78
2022-12-12T03:24:05.968Z,101298.59
2022-12-12T03:26:55.919Z,101294.28
2022-12-12T03:29:32.592Z,101301.50
2022-12-12T03:32:06.758Z,101299.19
2022-12-12T03:34:46.338Z,101303.81
2022-12-12T03:37:23.193Z,101302.88
2022-12-12T03:39:55.399Z,101297.72
2022-12-12T03:42:34.925Z,101300.53
2022-12-12T03:45:16.441Z,101310.38
2022-12-12T03:47:51.916Z,101300.78
2022-12-12T03:50:25.187Z,101300.94
2022-12-12T03:53:10.977Z,101298.34
2022-12-12T03:55:49.830Z,101304.69
2022-12-12T03:58:38.836Z,101305.66
2022-12-12T04:01:09.003Z,101311.03
2022-12-12T04:03:48.175Z,101314.84
2022-12-12T04:06:35.447Z,101307.78
2022-12-12T04:09:10.118Z,101313.16
2022-12-12T04:11:44.688Z,101315.00
2022-12-12T04:14:34.403Z,101303.63
2022-12-12T04:17:05.020Z,101304.50
2022-12-12T04:19:52.084Z,101313.50
2022-12-12T04:22:27.099Z,101318.94
2022-12-12T04:25:02.223Z,101319.88
2022-12-12T04:27:33.389Z,101319.94
2022-12-12T04:30:12.200Z,101316.56
2022-12-12T04:33:05.799Z,101319.28
2022-12-12T04:35:38.455Z,101318.59
2022-12-12T04:38:09.114Z,101319.53
2022-12-12T04:40:42.626Z,101324.97
2022-12-12T04:43:17.287Z,101328.78
2022-12-12T04:45:52.001Z,101332.34
2022-12-12T04:48:24.210Z,101336.81
2022-12-12T04:50:52.644Z,101336.91
2022-12-12T04:53:29.458Z,101332.59
2022-12-12T04:55:57.690Z,101337.09
2022-12-12T04:58:24.435Z,101333.56
2022-12-12T05:01:09.691Z,101328.38
2022-12-12T05:03:39.455Z,101325.91
2022-12-12T05:06:11.114Z,101337.38
2022-12-12T05:08:44.467Z,101327.84
2022-12-12T05:11:12.226Z,101327.09
2022-12-12T05:13:40.917Z,101327.91
2022-12-12T05:16:17.455Z,101329.63
2022-12-12T05:18:43.982Z,101325.41
2022-12-12T05:21:10.687Z,101330.72
2022-12-12T05:23:37.379Z,101334.38
2022-12-12T05:26:16.168Z,101331.66
2022-12-12T05:28:42.702Z,101333.50
2022-12-12T05:31:09.124Z,101341.34
2022-12-12T05:33:35.526Z,101331.78
2022-12-12T05:36:01.851Z,101318.66
2022-12-12T05:38:28.210Z,101325.09
2022-12-12T05:40:54.610Z,101326.22
2022-12-12T05:43:21.005Z,101337.78
2022-12-12T05:45:52.098Z,101338.84
2022-12-12T05:48:23.967Z,101346.03
2022-12-12T05:50:53.624Z,101340.88
2022-12-12T05:53:20.547Z,101337.56
2022-12-12T05:55:50.287Z,101339.34
2022-12-12T05:58:16.821Z,101348.34
2022-12-12T06:00:47.289Z,101347.53
2022-12-12T06:03:13.604Z,101341.41
2022-12-12T06:05:40.042Z,101352.19
2022-12-12T06:08:06.473Z,101347.00
2022-12-12T06:10:33.021Z,101353.19
2022-12-12T06:12:59.448Z,101355.78
2022-12-12T06:15:25.755Z,101350.59
2022-12-12T06:17:52.186Z,101353.31
2022-12-12T06:22:54.331Z,101364.03
2022-12-12T06:25:20.957Z,101363.16
2022-12-12T06:27:47.371Z,101366.03
2022-12-12T06:30:14.225Z,101369.63
2022-12-12T06:32:41.731Z,101366.03
2022-12-12T06:35:10.661Z,101367.69
2022-12-12T06:37:39.359Z,101364.03
2022-12-12T06:40:07.020Z,101360.34
2022-12-12T06:42:33.371Z,101367.38
2022-12-12T06:44:59.791Z,101365.63
2022-12-12T06:47:26.314Z,101370.03
2022-12-12T06:49:53.882Z,101364.72
2022-12-12T06:52:20.742Z,101374.34
2022-12-12T06:54:47.410Z,101357.91
2022-12-12T06:57:15.894Z,101363.31
2022-12-12T06:59:42.398Z,101365.16
2022-12-12T07:02:11.360Z,101366.91
2022-12-12T07:04:37.782Z,101376.63
2022-12-12T07:07:04.123Z,101376.75
2022-12-12T07:09:30.531Z,101378.63
2022-12-12T07:11:57.182Z,101377.78
2022-12-12T07:14:24.618Z,101388.53
2022-12-12T07:16:50.979Z,101366.28
2022-12-12T07:19:17.287Z,101381.19
2022-12-12T07:21:43.652Z,101396.34
2022-12-12T07:24:10.017Z,101394.03
2022-12-12T07:29:10.792Z,101379.84
2022-12-12T07:31:37.511Z,101411.09
2022-12-12T07:34:03.979Z,101404.09
2022-12-12T07:36:30.401Z,101402.22
2022-12-12T07:38:56.759Z,101410.16
2022-12-12T07:41:23.086Z,101400.50
2022-12-12T07:43:50.089Z,101419.09
2022-12-12T07:46:22.069Z,101418.47
2022-12-12T07:51:24.410Z,101417.84
2022-12-12T07:53:51.567Z,101429.38
2022-12-12T07:56:19.022Z,101421.44
2022-12-12T07:58:45.656Z,101439.00
2022-12-12T08:01:19.444Z,101430.94
2022-12-12T08:03:47.760Z,101442.16
2022-12-12T08:06:15.728Z,101442.09
2022-12-12T08:08:43.530Z,101440.84
2022-12-12T08:11:12.271Z,101452.78
2022-12-12T08:13:39.895Z,101447.19
2022-12-12T08:16:08.136Z,101447.72
2022-12-12T08:18:34.765Z,101444.41
2022-12-12T08:21:02.486Z,101453.06
2022-12-12T08:23:31.121Z,101447.88
2022-12-12T08:25:59.869Z,101448.09
2022-12-12T08:28:26.251Z,101452.97
2022-12-12T08:30:52.879Z,101456.75
2022-12-12T08:33:19.447Z,101462.72
2022-12-12T08:35:46.027Z,101455.06
2022-12-12T08:38:12.800Z,101453.28
2022-12-12T08:40:40.051Z,101444.69
2022-12-12T08:43:06.386Z,101454.84
2022-12-12T08:45:32.801Z,101448.22
2022-12-12T08:47:59.197Z,101437.38
2022-12-12T08:50:25.701Z,101448.47
2022-12-12T08:52:52.138Z,101435.41
2022-12-12T08:55:18.486Z,101438.41
2022-12-12T08:57:44.797Z,101436.38
2022-12-12T09:00:11.999Z,101447.41
2022-12-12T09:02:38.428Z,101446.31
2022-12-12T09:05:05.303Z,101438.50
2022-12-12T09:07:31.788Z,101439.09
2022-12-12T09:09:58.255Z,101445.84
2022-12-12T09:12:24.975Z,101449.91
2022-12-12T09:14:52.790Z,101451.66
2022-12-12T09:17:19.140Z,101452.50
2022-12-12T09:19:45.469Z,101449.72
2022-12-12T09:22:12.013Z,101446.59
2022-12-12T09:24:38.485Z,101454.69
2022-12-12T09:27:04.883Z,101461.25
2022-12-12T09:29:31.405Z,101455.91
2022-12-12T09:31:57.772Z,101454.59
2022-12-12T09:34:24.181Z,101449.75
2022-12-12T09:36:50.528Z,101450.03
2022-12-12T09:39:17.223Z,101446.25
2022-12-12T09:41:43.611Z,101447.34
2022-12-12T09:44:12.223Z,101441.16
2022-12-12T09:46:52.864Z,101446.50
2022-12-12T09:49:53.563Z,101452.00
2022-12-12T09:52:31.470Z,101441.06
2022-12-12T09:55:14.903Z,101445.44
2022-12-12T09:57:51.484Z,101441.56
2022-12-12T10:00:18.673Z,101444.69
2022-12-12T10:03:15.079Z,101431.88
2022-12-12T10:06:20.550Z,101438.47
2022-12-12T10:09:27.443Z,101437.28
2022-12-12T10:11:55.598Z,101439.53
2022-12-12T10:14:33.762Z,101442.34
2022-12-12T10:17:03.347Z,101431.56
2022-12-12T10:19:35.841Z,101441.56
2022-12-12T10:22:08.620Z,101435.88
2022-12-12T10:24:55.576Z,101421.66
2022-12-12T10:27:25.448Z,101419.59
2022-12-12T10:29:53.307Z,101417.50
2022-12-12T10:32:41.362Z,101419.78
2022-12-12T10:35:26.191Z,101425.16
2022-12-12T10:38:23.737Z,101421.72
2022-12-12T10:41:18.035Z,101417.41
2022-12-12T10:43:53.371Z,101409.72
2022-12-12T10:46:32.229Z,101406.38
2022-12-12T10:48:58.778Z,101405.97
2022-12-12T10:51:28.645Z,101400.81
2022-12-12T10:53:55.379Z,101408.50
2022-12-12T10:56:25.769Z,101407.06
2022-12-12T10:58:57.964Z,101406.03
2022-12-12T11:04:24.158Z,101407.50
2022-12-12T11:06:55.255Z,101404.06
2022-12-12T11:09:31.761Z,101405.03
2022-12-12T11:12:13.178Z,101392.06
2022-12-12T11:14:51.568Z,101407.06
2022-12-12T11:17:29.890Z,101397.00
2022-12-12T11:19:59.029Z,101399.97
2022-12-12T11:22:26.481Z,101396.09
2022-12-12T11:24:53.330Z,101396.25
2022-12-12T11:27:23.809Z,101393.31
2022-12-12T11:29:53.207Z,101392.41
2022-12-12T11:32:24.210Z,101390.47
2022-12-12T11:34:56.032Z,101397.09
2022-12-12T11:37:26.782Z,101395.34
2022-12-12T11:39:54.150Z,101404.69
2022-12-12T11:42:31.917Z,101390.09
2022-12-12T11:45:22.942Z,101393.94
2022-12-12T11:47:49.593Z,101397.66
2022-12-12T11:50:24.959Z,101398.81
2022-12-12T11:52:54.812Z,101392.69
2022-12-12T11:55:37.205Z,101386.69
2022-12-12T11:58:28.867Z,101381.94
2022-12-12T12:01:12.572Z,101383.34
2022-12-12T12:04:11.458Z,101369.78
2022-12-12T12:07:22.527Z,101377.94
2022-12-12T12:10:10.390Z,101375.44
2022-12-12T12:13:03.623Z,101379.44
2022-12-12T12:15:33.584Z,101386.00
2022-12-12T12:18:29.982Z,101376.53
2022-12-12T12:21:14.846Z,101373.25
2022-12-12T12:23:53.648Z,101365.50
2022-12-12T12:26:37.841Z,101368.66
2022-12-12T12:29:25.209Z,101370.56
2022-12-12T12:32:16.720Z,101369.72
2022-12-12T12:35:22.885Z,101379.09
2022-12-12T12:38:24.327Z,101376.63
2022-12-12T12:41:02.478Z,101368.25
2022-12-12T12:43:37.757Z,101380.59
2022-12-12T12:46:21.759Z,101376.66
2022-12-12T12:48:52.745Z,101386.28
2022-12-12T12:51:35.777Z,101380.69
2022-12-12T12:54:23.043Z,101377.66
2022-12-12T12:56:55.911Z,101362.63
2022-12-12T12:59:27.537Z,101368.81
2022-12-12T13:01:55.751Z,101366.06
2022-12-12T13:04:22.544Z,101361.97
2022-12-12T13:07:21.897Z,101353.50
2022-12-12T13:10:06.217Z,101350.78
2022-12-12T13:12:38.571Z,101343.41
2022-12-12T13:15:28.014Z,101340.28
2022-12-12T13:18:02.586Z,101349.50
2022-12-12T13:20:37.945Z,101357.28
2022-12-12T13:23:32.305Z,101361.84
2022-12-12T13:26:39.382Z,101372.38
2022-12-12T13:29:29.406Z,101367.75
2022-12-12T13:32:14.767Z,101371.84
2022-12-12T13:34:46.174Z,101375.22
2022-12-12T13:37:18.792Z,101382.50
2022-12-12T13:39:45.638Z,101382.53
2022-12-12T13:42:14.340Z,101380.00
2022-12-12T13:44:43.851Z,101391.53
2022-12-12T13:47:25.241Z,101393.09
2022-12-12T13:50:10.040Z,101393.38
2022-12-12T13:52:41.721Z,101384.09
2022-12-12T13:55:11.092Z,101382.38
2022-12-12T13:57:57.324Z,101382.69
2022-12-12T14:00:27.020Z,101384.03
2022-12-12T14:03:10.847Z,101384.03
2022-12-12T14:05:45.403Z,101380.50
2022-12-12T14:08:11.763Z,101385.88
2022-12-12T14:10:51.177Z,101366.94
2022-12-12T14:13:23.741Z,101380.31
2022-12-12T14:16:04.659Z,101372.94
2022-12-12T14:18:39.440Z,101362.16
2022-12-12T14:21:13.885Z,101377.47
2022-12-12T14:23:50.122Z,101376.78
2022-12-12T14:26:28.837Z,101373.78
2022-12-12T14:29:17.087Z,101375.84
2022-12-12T14:32:01.783Z,101374.06
2022-12-12T14:34:34.330Z,101381.78
2022-12-12T14:37:14.112Z,101389.69
2022-12-12T14:39:53.381Z,101380.19
2022-12-12T14:43:19.034Z,101386.69
2022-12-12T14:45:51.722Z,101382.69
2022-12-12T14:48:24.360Z,101384.94
2022-12-12T14:51:11.415Z,101388.41
2022-12-12T14:53:40.152Z,101395.09
2022-12-12T14:56:16.223Z,101406.66
2022-12-12T14:59:01.164Z,101402.34
2022-12-12T15:01:39.348Z,101406.94
2022-12-12T15:04:21.481Z,101412.59
2022-12-12T15:07:02.920Z,101429.00
2022-12-12T15:09:30.684Z,101428.00
2022-12-12T15:12:24.666Z,101421.41
2022-12-12T15:14:54.156Z,101418.97
2022-12-12T15:17:43.402Z,101419.88
2022-12-12T15:20:19.511Z,101418.41
2022-12-12T15:22:55.163Z,101425.59
2022-12-12T15:25:24.860Z,101426.59
2022-12-12T15:27:56.112Z,101421.00
2022-12-12T15:30:34.640Z,101426.41
2022-12-12T15:33:04.137Z,101427.06
2022-12-12T15:35:31.173Z,101427.00
2022-12-12T15:38:00.159Z,101435.13
2022-12-12T15:40:29.636Z,101432.66
2022-12-12T15:43:00.112Z,101437.78
2022-12-12T15:45:30.542Z,101438.91
2022-12-12T15:47:57.725Z,101448.22
2022-12-12T15:50:32.178Z,101437.97
2022-12-12T15:53:20.951Z,101436.88
2022-12-12T15:56:08.892Z,101441.44
2022-12-12T15:58:42.072Z,101445.34
2022-12-12T16:01:21.669Z,101440.31
2022-12-12T16:04:06.511Z,101439.78
2022-12-12T16:06:38.691Z,101442.78
2022-12-12T16:09:11.114Z,101447.53
2022-12-12T16:11:39.692Z,101451.44
2022-12-12T16:14:39.579Z,101445.53
2022-12-12T16:17:12.439Z,101441.44
2022-12-12T16:19:48.005Z,101444.28
2022-12-12T16:22:38.654Z,101434.63
2022-12-12T16:25:25.089Z,101439.50
2022-12-12T16:28:12.207Z,101441.59
2022-12-12T16:30:41.020Z,101433.94
2022-12-12T16:33:35.182Z,101437.63
2022-12-12T16:36:04.673Z,101443.13
2022-12-12T16:38:31.975Z,101453.03
2022-12-12T16:41:05.229Z,101448.00
2022-12-12T16:43:32.260Z,101444.88
2022-12-12T16:45:58.712Z,101444.06
2022-12-12T16:48:33.792Z,101449.13
2022-12-12T16:51:08.907Z,101446.72
2022-12-12T16:53:36.328Z,101447.97
2022-12-12T16:56:03.697Z,101454.88
2022-12-12T16:58:30.200Z,101440.28
2022-12-12T17:00:56.645Z,101448.66
2022-12-12T17:03:23.316Z,101446.13
2022-12-12T17:05:50.641Z,101451.53
2022-12-12T17:08:17.691Z,101455.94
2022-12-12T17:10:46.270Z,101447.22
2022-12-12T17:13:21.258Z,101445.50
2022-12-12T17:15:47.659Z,101455.44
2022-12-12T17:18:14.023Z,101432.59
2022-12-12T17:20:41.241Z,101438.22
2022-12-12T17:23:29.483Z,101440.16
2022-12-12T17:26:04.301Z,101444.69
2022-12-12T17:28:33.107Z,101447.47
2022-12-12T17:31:01.927Z,101441.09
2022-12-12T17:33:29.064Z,101448.53
2022-12-12T17:36:06.872Z,101445.09
2022-12-12T17:38:36.295Z,101450.72
2022-12-12T17:41:04.396Z,101447.50
2022-12-12T17:43:34.120Z,101453.03
2022-12-12T17:46:03.909Z,101447.84
2022-12-12T17:48:33.698Z,101446.97
2022-12-12T17:51:02.713Z,101443.38
2022-12-12T17:53:35.130Z,101439.00
2022-12-12T17:56:08.229Z,101441.78
2022-12-12T17:58:40.461Z,101442.81
2022-12-12T18:01:16.672Z,101439.34
2022-12-12T18:03:50.020Z,101437.56
2022-12-12T18:06:18.171Z,101434.16
2022-12-12T18:08:46.079Z,101436.75
2022-12-12T18:11:17.896Z,101436.22
2022-12-12T18:13:46.160Z,101444.38
2022-12-12T18:16:14.283Z,101436.69
2022-12-12T18:18:42.500Z,101436.91
2022-12-12T18:21:42.858Z,101435.16
2022-12-12T18:24:01.995Z,101431.59
2022-12-12T18:26:28.864Z,101434.09
2022-12-12T18:28:57.968Z,101430.69
2022-12-12T18:31:24.947Z,101430.13
2022-12-12T18:33:51.521Z,101431.81
2022-12-12T18:36:27.745Z,101437.06
2022-12-12T18:38:59.426Z,101434.53
2022-12-12T18:41:27.656Z,101434.91
2022-12-12T18:43:55.241Z,101438.47
2022-12-12T18:46:24.118Z,101440.28
2022-12-12T18:48:53.731Z,101440.50
2022-12-12T18:51:22.563Z,101445.16
2022-12-12T18:53:50.564Z,101453.06
2022-12-12T18:56:27.996Z,101447.75
2022-12-12T18:58:55.393Z,101446.94
2022-12-12T19:01:24.783Z,101450.47
2022-12-12T19:03:54.367Z,101440.91
2022-12-12T19:06:24.451Z,101439.13
2022-12-12T19:08:50.906Z,101448.25
2022-12-12T19:11:17.484Z,101450.13
2022-12-12T19:13:45.252Z,101439.66
2022-12-12T19:16:17.560Z,101447.47
2022-12-12T19:18:44.505Z,101448.56
2022-12-12T19:21:14.474Z,101446.00
2022-12-12T19:23:41.604Z,101447.81
2022-12-12T19:26:10.621Z,101453.25
2022-12-12T19:28:37.741Z,101456.03
2022-12-12T19:31:10.345Z,101448.34
2022-12-12T19:33:37.442Z,101455.59
2022-12-12T19:36:13.254Z,101457.34
2022-12-12T19:38:40.103Z,101456.41
2022-12-12T19:41:08.484Z,101462.69
2022-12-12T19:43:35.383Z,101454.75
2022-12-12T19:46:12.360Z,101456.56
2022-12-12T19:48:39.739Z,101452.84
2022-12-12T19:51:15.783Z,101464.44
2022-12-12T19:53:47.909Z,101457.56
2022-12-12T19:56:16.731Z,101458.41
2022-12-12T19:58:44.434Z,101463.97
2022-12-12T20:01:18.894Z,101457.16
2022-12-12T20:03:50.554Z,101465.88
2022-12-12T20:06:18.947Z,101463.19
2022-12-12T20:08:46.301Z,101468.59
2022-12-12T20:11:16.998Z,101466.06
2022-12-12T20:13:55.770Z,101469.69
2022-12-12T20:16:27.757Z,101464.25
2022-12-12T20:18:54.982Z,101467.91
2022-12-12T20:21:59.128Z,101463.41
2022-12-12T20:24:14.527Z,101467.94
2022-12-12T20:26:41.227Z,101468.19
2022-12-12T20:29:08.862Z,101460.31
2022-12-12T20:31:38.382Z,101467.28
2022-12-12T20:34:05.097Z,101460.44
2022-12-12T20:36:36.828Z,101461.38
2022-12-12T20:39:06.755Z,101471.00
2022-12-12T20:41:36.772Z,101471.06
2022-12-12T20:44:04.742Z,101465.81
2022-12-12T20:46:34.468Z,101474.78
2022-12-12T20:49:03.411Z,101469.41
2022-12-12T20:51:54.185Z,101467.75
2022-12-12T20:54:16.913Z,101470.63
2022-12-12T20:56:46.320Z,101477.78
2022-12-12T20:59:13.030Z,101477.13
2022-12-12T21:01:39.419Z,101470.97
2022-12-12T21:04:07.660Z,101472.75
2022-12-12T21:06:37.382Z,101473.69
2022-12-12T21:09:07.176Z,101484.25
2022-12-12T21:11:34.906Z,101470.28
2022-12-12T21:14:01.683Z,101479.81
2022-12-12T21:16:36.866Z,101481.69
2022-12-12T21:19:07.396Z,101489.63
2022-12-12T21:21:34.328Z,101479.19
2022-12-12T21:24:01.115Z,101482.72
2022-12-12T21:26:30.106Z,101485.59
2022-12-12T21:28:57.685Z,101482.13
2022-12-12T21:31:29.921Z,101481.19
2022-12-12T21:33:57.492Z,101476.66
2022-12-12T21:36:25.226Z,101481.19
2022-12-12T21:38:53.147Z,101480.41
2022-12-12T21:41:21.996Z,101479.56
2022-12-12T21:43:49.354Z,101480.34
2022-12-12T21:46:18.692Z,101477.78
2022-12-12T21:48:45.150Z,101482.19
2022-12-12T21:51:16.269Z,101483.03
2022-12-12T21:53:42.936Z,101489.19
2022-12-12T21:56:13.097Z,101478.00
2022-12-12T21:58:42.614Z,101476.25
2022-12-12T22:01:17.912Z,101474.38
2022-12-12T22:03:45.855Z,101472.69
2022-12-12T22:06:13.645Z,101480.59
2022-12-12T22:08:40.803Z,101475.47
2022-12-12T22:11:08.337Z,101485.19
2022-12-12T22:13:39.911Z,101479.91
2022-12-12T22:16:10.509Z,101479.00
2022-12-12T22:18:37.204Z,101481.72
2022-12-12T22:21:08.733Z,101479.09
2022-12-12T22:23:36.202Z,101487.22
2022-12-12T22:26:21.915Z,101482.84
2022-12-12T22:28:53.131Z,101477.75
2022-12-12T22:31:22.199Z,101484.69
2022-12-12T22:33:49.344Z,101481.22
2022-12-12T22:36:19.342Z,101481.19
2022-12-12T22:38:46.883Z,101480.38
2022-12-12T22:41:13.348Z,101478.78
2022-12-12T22:43:39.730Z,101478.03
2022-12-12T22:46:09.525Z,101477.22
2022-12-12T22:48:37.031Z,101475.53
2022-12-12T22:51:20.494Z,101474.53
2022-12-12T22:53:47.389Z,101486.78
2022-12-12T22:56:14.615Z,101481.56
2022-12-12T22:58:42.015Z,101480.66
2022-12-12T23:01:10.136Z,101479.00
2022-12-12T23:03:38.328Z,101475.47
2022-12-12T23:06:14.026Z,101476.28
2022-12-12T23:08:41.665Z,101473.69
2022-12-12T23:11:15.640Z,101469.41
2022-12-12T23:13:43.453Z,101463.25
2022-12-12T23:16:13.384Z,101464.13
2022-12-12T23:18:40.949Z,101469.50
2022-12-12T23:21:16.281Z,101465.09
2022-12-12T23:23:44.426Z,101468.56
2022-12-12T23:26:14.066Z,101449.28
2022-12-12T23:28:41.039Z,101452.06
2022-12-12T23:31:13.761Z,101452.97
2022-12-12T23:33:40.208Z,101449.50
2022-12-12T23:36:14.942Z,101453.91
2022-12-12T23:38:41.845Z,101448.53
2022-12-12T23:41:11.607Z,101448.69
2022-12-12T23:43:38.453Z,101446.00
2022-12-12T23:46:08.065Z,101455.81
2022-12-12T23:48:35.087Z,101453.19
2022-12-12T23:51:01.617Z,101450.81
2022-12-12T23:53:31.476Z,101454.19
2022-12-12T23:56:04.293Z,101458.53
2022-12-12T23:58:30.632Z,101455.03
